Time;durP1;ratioP1;P1;durP2;ratioP2;P2;SDS_P1;SDS_P2;PMS_P1;PMS_P2;Temp;Humidity;BMP_temperature;BMP_pressure;BME280_temperature;BME280_humidity;BME280_pressure;Samples;Min_cycle;Max_cycle;Signal;HPM_P1;HPM_P2
2022/08/20 00:01:03;;;;;;;6.70;5.70;;;21.00;99.90;;;;;;5059746;28;20041;-47
2022/08/20 00:03:31;;;;;;;8.27;6.80;;;20.90;99.90;;;;;;5058827;28;20564;-46
2022/08/20 00:06:01;;;;;;;10.10;7.40;;;20.90;99.90;;;;;;5067817;28;20428;-45
2022/08/20 00:08:28;;;;;;;12.02;7.20;;;20.90;99.90;;;;;;5059614;28;20118;-46
2022/08/20 00:10:56;;;;;;;9.38;7.18;;;20.90;99.90;;;;;;5052071;28;20095;-47
2022/08/20 00:13:24;;;;;;;10.75;6.95;;;20.80;99.90;;;;;;5047528;28;20083;-46
2022/08/20 00:15:51;;;;;;;11.35;7.10;;;20.80;99.90;;;;;;5060227;28;20492;-48
2022/08/20 00:18:18;;;;;;;11.05;7.30;;;20.80;99.90;;;;;;5060108;28;20052;-48
2022/08/20 00:20:48;;;;;;;9.85;7.07;;;20.70;99.90;;;;;;5054364;28;20140;-46
2022/08/20 00:23:16;;;;;;;9.50;6.93;;;20.70;99.90;;;;;;5056948;28;20136;-47
2022/08/20 00:25:43;;;;;;;14.82;7.28;;;20.70;99.90;;;;;;5065087;28;20385;-49
2022/08/20 00:28:11;;;;;;;7.57;6.10;;;20.60;99.90;;;;;;5049674;28;20462;-48
2022/08/20 00:30:38;;;;;;;8.60;5.25;;;20.60;99.90;;;;;;5060197;28;20558;-47
2022/08/20 00:33:06;;;;;;;8.48;4.90;;;20.60;99.90;;;;;;5066654;28;20105;-53
2022/08/20 00:35:34;;;;;;;8.20;5.40;;;20.60;99.90;;;;;;5070036;28;20048;-46
2022/08/20 00:38:01;;;;;;;16.88;8.13;;;20.50;99.90;;;;;;5072751;28;20131;-49
2022/08/20 00:40:31;;;;;;;12.85;6.13;;;20.50;99.90;;;;;;5061587;28;20083;-53
2022/08/20 00:42:59;;;;;;;14.48;6.40;;;20.50;99.90;;;;;;5048587;28;20102;-51
2022/08/20 00:45:27;;;;;;;13.00;6.55;;;20.50;99.90;;;;;;5061936;28;20085;-48
2022/08/20 00:47:54;;;;;;;12.43;6.53;;;20.40;99.90;;;;;;5063763;28;20084;-53
2022/08/20 00:50:23;;;;;;;12.65;6.15;;;20.30;99.90;;;;;;5064377;28;20048;-50
2022/08/20 00:52:50;;;;;;;10.75;5.35;;;20.30;99.90;;;;;;5050961;28;20053;-53
2022/08/20 00:55:17;;;;;;;10.18;5.13;;;20.30;99.90;;;;;;5053497;28;20133;-54
2022/08/20 00:57:47;;;;;;;8.48;5.00;;;20.20;99.90;;;;;;5038906;28;20164;-48
2022/08/20 01:00:16;;;;;;;13.65;6.80;;;20.20;99.90;;;;;;5042618;28;20072;-50
2022/08/20 01:02:43;;;;;;;11.00;6.25;;;20.20;99.90;;;;;;5060549;28;20106;-52
2022/08/20 01:05:09;;;;;;;12.30;7.13;;;20.20;99.90;;;;;;5055182;28;20107;-51
2022/08/20 01:07:36;;;;;;;11.25;5.68;;;20.10;99.90;;;;;;5059560;28;20084;-53
2022/08/20 01:10:05;;;;;;;9.70;5.43;;;20.10;99.90;;;;;;5053363;28;20088;-52
2022/08/20 01:12:32;;;;;;;13.20;7.00;;;20.10;99.90;;;;;;5056040;28;20083;-52
2022/08/20 01:15:01;;;;;;;7.03;5.10;;;20.10;99.90;;;;;;5071691;28;20450;-50
2022/08/20 01:17:31;;;;;;;14.07;6.10;;;20.00;99.90;;;;;;5053045;28;20049;-53
2022/08/20 01:19:59;;;;;;;9.02;5.78;;;20.00;99.90;;;;;;5058122;28;20131;-48
2022/08/20 01:25:17;;;;;;;9.65;4.95;;;20.00;99.90;;;;;;5055885;28;20045;-41
2022/08/20 01:27:45;;;;;;;9.45;5.00;;;20.00;99.90;;;;;;5056523;28;20076;-50
2022/08/20 01:30:12;;;;;;;10.80;7.07;;;20.00;99.90;;;;;;5055135;28;20041;-45
2022/08/20 01:32:38;;;;;;;17.08;6.90;;;20.00;99.90;;;;;;5051637;28;20085;-49
2022/08/20 01:35:06;;;;;;;15.23;7.75;;;20.00;99.90;;;;;;5067848;28;20087;-50
2022/08/20 01:37:32;;;;;;;11.27;6.28;;;19.90;99.90;;;;;;5058832;28;20073;-50
2022/08/20 01:39:59;;;;;;;11.88;6.88;;;19.90;99.90;;;;;;5068762;28;20072;-49
2022/08/20 01:42:27;;;;;;;10.48;5.50;;;19.90;99.90;;;;;;5067812;28;20128;-49
2022/08/20 01:44:55;;;;;;;10.85;6.25;;;19.80;99.90;;;;;;5050202;28;20106;-51
2022/08/20 01:47:24;;;;;;;8.63;4.80;;;19.80;99.90;;;;;;5059517;28;20446;-51
2022/08/20 01:49:52;;;;;;;8.90;4.63;;;19.80;99.90;;;;;;5067290;28;20105;-50
2022/08/20 01:52:22;;;;;;;9.50;4.60;;;19.80;99.90;;;;;;5061143;28;20072;-49
2022/08/20 01:54:49;;;;;;;8.23;5.37;;;19.80;99.90;;;;;;5060369;28;20071;-47
2022/08/20 01:57:16;;;;;;;13.23;6.25;;;19.80;99.90;;;;;;5055248;28;20135;-48
2022/08/20 01:59:43;;;;;;;10.93;5.18;;;19.70;99.90;;;;;;5055056;28;20464;-50
2022/08/20 02:02:12;;;;;;;8.27;5.15;;;19.70;99.90;;;;;;5053230;28;20057;-45
2022/08/20 02:04:39;;;;;;;9.88;4.43;;;19.70;99.90;;;;;;5064617;28;20056;-48
2022/08/20 02:07:07;;;;;;;13.18;5.10;;;19.70;99.90;;;;;;5062406;28;20059;-49
2022/08/20 02:09:36;;;;;;;9.85;4.72;;;19.70;99.90;;;;;;5052550;28;20118;-49
2022/08/20 02:12:04;;;;;;;10.90;5.00;;;19.70;99.90;;;;;;5059252;28;20052;-47
2022/08/20 02:14:32;;;;;;;9.10;5.35;;;19.70;99.90;;;;;;5055958;28;20071;-47
2022/08/20 02:16:59;;;;;;;11.93;5.63;;;19.60;99.90;;;;;;5068300;28;20127;-48
2022/08/20 02:19:29;;;;;;;8.40;5.05;;;19.60;99.90;;;;;;5061060;28;20056;-45
2022/08/20 02:21:57;;;;;;;11.68;4.93;;;19.60;99.90;;;;;;5059779;28;20140;-45
2022/08/20 02:24:24;;;;;;;12.88;4.22;;;19.60;99.90;;;;;;5060079;28;20065;-52
2022/08/20 02:26:51;;;;;;;8.27;4.85;;;19.60;99.90;;;;;;5060135;28;20128;-49
2022/08/20 02:29:17;;;;;;;11.50;5.50;;;19.60;99.90;;;;;;5058835;28;20079;-39
2022/08/20 02:31:45;;;;;;;11.52;5.30;;;19.50;99.90;;;;;;5054928;28;20044;-51
2022/08/20 02:34:12;;;;;;;10.15;5.80;;;19.50;99.90;;;;;;5070374;28;20564;-50
2022/08/20 02:36:42;;;;;;;9.07;4.50;;;19.60;99.90;;;;;;5056652;28;20136;-52
2022/08/20 02:39:10;;;;;;;8.68;5.05;;;19.50;99.90;;;;;;5059464;28;20456;-50
2022/08/20 02:41:37;;;;;;;12.65;5.22;;;19.50;99.90;;;;;;5063080;28;20053;-52
2022/08/20 02:44:05;;;;;;;10.10;5.43;;;19.50;99.90;;;;;;5061746;28;20123;-51
2022/08/20 02:46:31;;;;;;;7.25;4.60;;;19.50;99.90;;;;;;5055006;28;20052;-51
2022/08/20 02:48:58;;;;;;;13.35;5.40;;;19.40;99.90;;;;;;5063042;28;20080;-52
2022/08/20 02:51:25;;;;;;;11.43;5.38;;;19.40;99.90;;;;;;5069473;28;20496;-53
2022/08/20 02:53:53;;;;;;;10.75;5.80;;;19.40;99.90;;;;;;5065651;28;20504;-51
2022/08/20 02:56:20;;;;;;;10.73;6.38;;;19.40;99.90;;;;;;5059867;28;20077;-52
2022/08/20 02:58:47;;;;;;;8.68;5.70;;;19.40;99.90;;;;;;5064987;28;20052;-45
2022/08/20 03:01:15;;;;;;;11.05;6.75;;;19.40;99.90;;;;;;5057202;28;20079;-42
2022/08/20 03:03:42;;;;;;;12.43;5.85;;;19.30;99.90;;;;;;5057857;28;20073;-49
2022/08/20 03:06:09;;;;;;;7.97;4.93;;;19.30;99.90;;;;;;5054131;28;20099;-53
2022/08/20 03:08:36;;;;;;;9.57;5.90;;;19.30;99.90;;;;;;5065445;28;20056;-50
2022/08/20 03:11:04;;;;;;;14.02;6.32;;;19.30;99.90;;;;;;5065399;28;20056;-54
2022/08/20 03:13:31;;;;;;;15.30;6.75;;;19.30;99.90;;;;;;5064169;28;20067;-50
2022/08/20 03:15:59;;;;;;;12.75;6.50;;;19.30;99.90;;;;;;5072138;28;20140;-53
2022/08/20 03:18:27;;;;;;;13.45;7.50;;;19.20;99.90;;;;;;5054006;28;20589;-47
2022/08/20 03:20:54;;;;;;;9.18;5.68;;;19.20;99.90;;;;;;5047445;28;20072;-53
2022/08/20 03:23:20;;;;;;;10.00;5.93;;;19.20;99.90;;;;;;5064209;28;20509;-50
2022/08/20 03:25:47;;;;;;;10.05;6.50;;;19.10;99.90;;;;;;5064733;28;20079;-52
2022/08/20 03:28:16;;;;;;;10.93;6.45;;;19.10;99.90;;;;;;5069830;28;20463;-52
2022/08/20 03:30:42;;;;;;;10.82;5.80;;;19.10;99.90;;;;;;5061944;28;20072;-51
2022/08/20 03:33:09;;;;;;;10.82;6.72;;;19.00;99.90;;;;;;5072568;28;20044;-51
2022/08/20 03:35:36;;;;;;;8.40;5.72;;;19.00;99.90;;;;;;5044954;28;20123;-52
2022/08/20 03:38:06;;;;;;;12.35;6.20;;;19.00;99.90;;;;;;5066560;28;20089;-52
2022/08/20 03:40:33;;;;;;;8.38;5.60;;;19.00;99.90;;;;;;5067194;28;20129;-50
2022/08/20 03:43:00;;;;;;;8.63;4.88;;;18.90;99.90;;;;;;5070019;28;20127;-53
2022/08/20 03:45:29;;;;;;;11.32;5.18;;;18.90;99.90;;;;;;5053764;28;20095;-51
2022/08/20 03:47:56;;;;;;;8.10;5.28;;;19.00;99.90;;;;;;5059909;28;20049;-52
2022/08/20 03:50:27;;;;;;;10.57;5.72;;;18.90;99.90;;;;;;5062363;28;20045;-52
2022/08/20 03:52:54;;;;;;;13.73;5.35;;;18.90;99.90;;;;;;5063602;28;20428;-44
2022/08/20 03:55:21;;;;;;;15.50;6.55;;;18.90;99.90;;;;;;5056819;28;20127;-49
2022/08/20 03:57:54;;;;;;;12.43;5.78;;;18.90;99.90;;;;;;5062264;28;20084;-50
2022/08/20 04:00:23;;;;;;;9.55;5.50;;;18.90;99.90;;;;;;5048548;28;20484;-51
2022/08/20 04:02:51;;;;;;;9.88;5.68;;;18.90;99.90;;;;;;5062707;28;20048;-54
2022/08/20 04:05:18;;;;;;;11.27;6.60;;;18.80;99.90;;;;;;5058851;28;20123;-52
2022/08/20 04:07:45;;;;;;;8.65;5.20;;;18.80;99.90;;;;;;5065374;28;20049;-52
2022/08/20 04:10:12;;;;;;;12.98;6.28;;;18.70;99.90;;;;;;5068873;28;20056;-50
2022/08/20 04:12:39;;;;;;;12.40;7.10;;;18.70;99.90;;;;;;5072771;28;20053;-53
2022/08/20 04:15:08;;;;;;;12.38;6.38;;;18.70;99.90;;;;;;5071800;28;20559;-46
2022/08/20 04:17:36;;;;;;;9.77;5.97;;;18.70;99.90;;;;;;5057255;28;20136;-52
2022/08/20 04:20:05;;;;;;;12.75;5.88;;;18.70;99.90;;;;;;5055704;28;20131;-53
2022/08/20 04:22:32;;;;;;;12.00;6.18;;;18.70;99.90;;;;;;5060308;28;20049;-49
2022/08/20 04:24:58;;;;;;;14.30;7.00;;;18.70;99.90;;;;;;5061446;28;20132;-53
2022/08/20 04:27:25;;;;;;;10.15;6.35;;;18.70;99.90;;;;;;5069643;28;20554;-51
2022/08/20 04:29:52;;;;;;;11.45;5.70;;;18.60;99.90;;;;;;5059905;28;20124;-51
2022/08/20 04:32:20;;;;;;;9.23;5.45;;;18.60;99.90;;;;;;5065606;28;20118;-44
2022/08/20 04:34:48;;;;;;;12.35;6.30;;;18.60;99.90;;;;;;5052413;28;20055;-52
2022/08/20 04:37:21;;;;;;;11.93;5.55;;;18.60;99.90;;;;;;5061607;28;20129;-44
2022/08/20 04:40:52;;;;;;;12.70;6.10;;;18.50;99.90;;;;;;5065093;28;20055;-51
2022/08/20 04:42:35;;;;;;;12.35;6.22;;;18.50;99.90;;;;;;5062077;28;20135;-49
2022/08/20 04:45:02;;;;;;;9.55;4.82;;;18.50;99.90;;;;;;5071795;28;20055;-52
2022/08/20 04:47:28;;;;;;;10.07;5.10;;;18.50;99.90;;;;;;5053290;28;20095;-49
2022/08/20 04:49:59;;;;;;;9.63;4.57;;;18.40;99.90;;;;;;5066920;28;20048;-51
2022/08/20 04:52:27;;;;;;;12.73;4.75;;;18.40;99.90;;;;;;5068602;28;20556;-41
2022/08/20 04:54:55;;;;;;;15.57;5.80;;;18.40;99.90;;;;;;5058825;28;20484;-52
2022/08/20 04:57:22;;;;;;;10.80;5.03;;;18.40;99.90;;;;;;5065300;28;20048;-48
2022/08/20 04:59:50;;;;;;;12.45;5.00;;;18.40;99.90;;;;;;5055835;28;20048;-49
2022/08/20 05:02:17;;;;;;;10.52;5.78;;;18.40;99.90;;;;;;5059977;28;20040;-50
2022/08/20 05:04:45;;;;;;;12.25;5.22;;;18.30;99.90;;;;;;5058000;28;20400;-52
2022/08/20 05:07:13;;;;;;;10.20;4.45;;;18.30;99.90;;;;;;5059048;28;20041;-49
2022/08/20 05:09:41;;;;;;;12.02;4.47;;;18.30;99.90;;;;;;5055026;28;20064;-49
2022/08/20 05:12:08;;;;;;;5.90;3.65;;;18.30;99.90;;;;;;5063666;28;20500;-51
2022/08/20 05:14:35;;;;;;;12.85;5.10;;;18.30;99.90;;;;;;5063020;28;20072;-51
2022/08/20 05:17:03;;;;;;;11.05;4.75;;;18.20;99.90;;;;;;5048699;28;20045;-51
2022/08/20 05:19:30;;;;;;;8.90;3.80;;;18.20;99.90;;;;;;5053194;28;20056;-51
2022/08/20 05:21:57;;;;;;;11.82;4.68;;;18.20;99.90;;;;;;5062704;28;20072;-52
2022/08/20 05:24:24;;;;;;;10.23;4.70;;;18.20;99.90;;;;;;5051960;28;20095;-52
2022/08/20 05:26:54;;;;;;;8.73;4.93;;;18.20;99.90;;;;;;5057097;28;20049;-49
2022/08/20 05:29:22;;;;;;;10.30;4.60;;;18.20;99.90;;;;;;5066360;28;20053;-50
2022/08/20 05:31:48;;;;;;;12.13;4.43;;;18.10;99.90;;;;;;5055979;28;20075;-53
2022/08/20 05:34:15;;;;;;;11.77;5.07;;;18.10;99.90;;;;;;5061140;28;20041;-52
2022/08/20 05:36:43;;;;;;;14.57;5.15;;;18.10;99.90;;;;;;5060022;28;20234;-52
2022/08/20 05:39:11;;;;;;;9.82;4.40;;;18.10;99.90;;;;;;5063898;28;20477;-52
2022/08/20 05:41:37;;;;;;;10.98;4.50;;;18.10;99.90;;;;;;5048020;28;20049;-50
2022/08/20 05:44:08;;;;;;;8.73;3.55;;;18.10;99.90;;;;;;5069241;28;20370;-52
2022/08/20 05:46:39;;;;;;;12.00;4.38;;;18.10;99.90;;;;;;5058517;28;20052;-50
2022/08/20 05:49:06;;;;;;;12.48;4.95;;;18.10;99.90;;;;;;5070679;28;20058;-50
2022/08/20 05:51:35;;;;;;;11.82;4.05;;;18.20;99.90;;;;;;5062976;28;20785;-52
2022/08/20 05:54:02;;;;;;;13.55;4.72;;;18.20;99.90;;;;;;5048110;28;20053;-50
2022/08/20 05:56:29;;;;;;;9.02;3.83;;;18.20;99.90;;;;;;5031655;28;20413;-51
2022/08/20 05:58:56;;;;;;;10.48;4.05;;;18.20;99.90;;;;;;5044484;28;20045;-50
2022/08/20 06:01:24;;;;;;;13.25;4.53;;;18.20;99.90;;;;;;5035034;28;20053;-52
2022/08/20 06:06:36;;;;;;;8.85;4.05;;;18.20;99.90;;;;;;5027551;28;20156;-52
2022/08/20 06:09:03;;;;;;;17.50;4.07;;;18.30;99.90;;;;;;5029008;28;20481;-53
2022/08/20 06:11:30;;;;;;;18.92;4.90;;;18.40;99.90;;;;;;5028414;28;20049;-50
2022/08/20 06:13:57;;;;;;;15.93;4.07;;;18.40;99.90;;;;;;5039826;28;20124;-50
2022/08/20 06:16:25;;;;;;;9.45;3.50;;;18.50;99.90;;;;;;5031006;28;20468;-49
2022/08/20 06:18:52;;;;;;;14.90;3.78;;;18.60;99.90;;;;;;5026000;28;20390;-49
2022/08/20 06:21:18;;;;;;;13.35;4.40;;;18.70;99.90;;;;;;5041404;28;20127;-49
2022/08/20 06:23:45;;;;;;;15.20;4.38;;;18.70;99.90;;;;;;5038962;28;20091;-51
2022/08/20 06:26:12;;;;;;;11.38;4.10;;;18.80;99.90;;;;;;5039135;28;20092;-46
2022/08/20 06:28:39;;;;;;;10.57;4.13;;;18.90;99.90;;;;;;5012147;28;20087;-50
2022/08/20 06:31:06;;;;;;;14.77;3.60;;;18.90;99.90;;;;;;5026533;28;20060;-47
2022/08/20 06:33:35;;;;;;;14.45;3.78;;;18.90;99.90;;;;;;5007564;28;20056;-44
2022/08/20 06:36:01;;;;;;;11.98;3.45;;;19.00;99.90;;;;;;5013654;28;20417;-47
2022/08/20 06:38:28;;;;;;;10.45;3.30;;;19.10;99.90;;;;;;5027858;28;20060;-48
2022/08/20 06:40:55;;;;;;;10.20;3.20;;;19.10;99.90;;;;;;5027824;28;20508;-46
2022/08/20 06:43:22;;;;;;;12.88;3.40;;;19.10;99.90;;;;;;5021155;28;20497;-50
2022/08/20 06:45:48;;;;;;;9.85;3.03;;;19.20;99.90;;;;;;5008485;28;20545;-46
2022/08/20 06:48:16;;;;;;;11.85;3.05;;;19.30;99.90;;;;;;5035200;28;20160;-50
2022/08/20 06:50:46;;;;;;;10.50;2.63;;;19.40;99.90;;;;;;5024671;28;20053;-45
2022/08/20 06:53:15;;;;;;;12.45;2.88;;;19.50;99.90;;;;;;5011061;28;20137;-48
2022/08/20 06:55:43;;;;;;;15.02;2.85;;;19.70;99.90;;;;;;5043661;28;20072;-39
2022/08/20 06:58:10;;;;;;;12.18;2.67;;;19.80;99.90;;;;;;5046273;28;20053;-45
2022/08/20 07:00:42;;;;;;;10.25;2.25;;;19.90;99.90;;;;;;5040060;28;20405;-48
2022/08/20 07:03:08;;;;;;;9.55;2.45;;;20.00;99.90;;;;;;5054514;28;20108;-39
2022/08/20 07:05:36;;;;;;;11.27;2.30;;;20.10;99.90;;;;;;5043923;28;20115;-42
2022/08/20 07:08:04;;;;;;;11.65;2.65;;;20.20;99.90;;;;;;5058509;28;20464;-48
2022/08/20 07:10:32;;;;;;;10.05;2.60;;;20.20;99.90;;;;;;5055693;28;20136;-42
2022/08/20 07:12:59;;;;;;;11.82;2.55;;;20.20;99.90;;;;;;5046412;28;20141;-38
2022/08/20 07:15:26;;;;;;;6.97;1.83;;;20.30;99.60;;;;;;5053450;28;20044;-49
2022/08/20 07:17:53;;;;;;;11.13;2.10;;;20.30;99.40;;;;;;5060181;28;20048;-43
2022/08/20 07:20:21;;;;;;;10.55;1.90;;;20.40;99.20;;;;;;5055060;28;20084;-47
2022/08/20 07:22:48;;;;;;;7.85;1.67;;;20.30;98.70;;;;;;5046229;28;20044;-47
2022/08/20 07:25:17;;;;;;;6.28;1.58;;;20.30;98.60;;;;;;5060891;28;20076;-47
2022/08/20 07:27:44;;;;;;;9.65;1.85;;;20.30;98.70;;;;;;5066334;28;20397;-44
2022/08/20 07:32:56;;;;;;;7.13;1.58;;;20.50;98.20;;;;;;5058045;28;20094;-48
2022/08/20 07:35:23;;;;;;;8.73;1.95;;;20.60;98.30;;;;;;5048213;28;20404;-45
2022/08/20 07:37:53;;;;;;;6.25;1.55;;;20.70;98.10;;;;;;5053033;28;20132;-45
2022/08/20 07:40:23;;;;;;;11.18;1.90;;;21.00;98.10;;;;;;5066151;28;20072;-46
2022/08/20 07:42:50;;;;;;;10.45;2.05;;;21.10;97.30;;;;;;5056091;28;20105;-43
2022/08/20 07:45:17;;;;;;;9.15;1.95;;;21.20;97.00;;;;;;5067472;28;20040;-41
2022/08/20 07:47:44;;;;;;;8.23;1.88;;;21.30;96.50;;;;;;5063211;28;20091;-42
2022/08/20 07:50:12;;;;;;;9.27;1.60;;;21.40;96.20;;;;;;5062238;28;20045;-42
2022/08/20 07:52:39;;;;;;;8.00;1.58;;;21.50;95.90;;;;;;5069545;28;20048;-46
2022/08/20 07:55:07;;;;;;;7.68;1.33;;;21.70;95.70;;;;;;5058072;28;20057;-48
2022/08/20 07:57:35;;;;;;;7.60;1.60;;;21.70;95.30;;;;;;5073071;28;20076;-46
2022/08/20 08:00:02;;;;;;;7.15;1.65;;;21.80;95.20;;;;;;5070788;28;20124;-45
2022/08/20 08:02:29;;;;;;;6.18;1.15;;;22.00;94.60;;;;;;5068582;28;20048;-44
2022/08/20 08:04:56;;;;;;;8.55;1.98;;;22.10;94.40;;;;;;5066955;28;20469;-44
2022/08/20 08:07:25;;;;;;;7.05;1.30;;;22.20;94.30;;;;;;5072855;28;20511;-44
2022/08/20 08:09:51;;;;;;;11.38;1.50;;;22.30;93.70;;;;;;5056401;28;20052;-48
2022/08/20 08:12:19;;;;;;;8.48;1.77;;;22.40;93.90;;;;;;5066725;28;21770;-47
2022/08/20 08:14:48;;;;;;;13.48;1.95;;;22.50;93.50;;;;;;5072782;28;20063;-50
2022/08/20 08:17:15;;;;;;;7.47;1.40;;;22.60;92.70;;;;;;5065758;28;20128;-47
2022/08/20 08:19:43;;;;;;;6.97;1.55;;;22.70;92.50;;;;;;5053428;28;20475;-47
2022/08/20 08:22:11;;;;;;;13.13;2.20;;;22.80;92.50;;;;;;5047743;28;20080;-40
2022/08/20 08:24:38;;;;;;;13.32;1.83;;;22.80;91.70;;;;;;5049755;28;20116;-41
2022/08/20 08:27:06;;;;;;;10.30;1.90;;;22.90;91.50;;;;;;5047833;28;20408;-44
2022/08/20 08:29:34;;;;;;;10.50;1.58;;;23.00;91.20;;;;;;5043532;28;20045;-46
2022/08/20 08:32:03;;;;;;;7.40;1.67;;;23.10;90.80;;;;;;5052560;28;20175;-44
2022/08/20 08:34:31;;;;;;;10.93;1.50;;;23.10;91.10;;;;;;5058997;28;20084;-48
2022/08/20 08:36:59;;;;;;;6.38;1.67;;;23.30;91.10;;;;;;5051606;28;20049;-49
2022/08/20 08:39:26;;;;;;;11.57;1.88;;;23.40;91.10;;;;;;5045614;28;20408;-47
2022/08/20 08:41:56;;;;;;;4.32;1.20;;;23.60;90.70;;;;;;5053791;28;20146;-48
2022/08/20 08:44:25;;;;;;;9.43;1.80;;;23.70;90.10;;;;;;5057527;28;20112;-46
2022/08/20 08:46:55;;;;;;;8.93;1.35;;;23.90;90.30;;;;;;5062932;28;20044;-44
2022/08/20 08:49:25;;;;;;;7.72;1.40;;;24.00;90.30;;;;;;5067435;28;20128;-48
2022/08/20 08:51:54;;;;;;;8.90;1.45;;;24.20;90.00;;;;;;5066440;28;20044;-47
2022/08/20 08:54:23;;;;;;;9.48;1.38;;;24.30;88.50;;;;;;5062918;28;20436;-48
2022/08/20 08:56:50;;;;;;;5.47;1.45;;;24.50;86.60;;;;;;5062147;28;20052;-45
2022/08/20 08:59:17;;;;;;;6.53;1.25;;;24.50;86.70;;;;;;5056659;28;20123;-45
2022/08/20 09:01:45;;;;;;;9.10;2.08;;;24.60;87.90;;;;;;5072098;28;20123;-48
2022/08/20 09:04:12;;;;;;;10.35;1.48;;;24.70;85.60;;;;;;5058443;28;20492;-43
2022/08/20 09:06:42;;;;;;;4.25;1.00;;;24.70;85.00;;;;;;5052492;28;20048;-43
2022/08/20 09:09:17;;;;;;;7.00;1.10;;;24.80;84.60;;;;;;5059386;28;20052;-47
2022/08/20 09:11:46;;;;;;;5.78;1.23;;;24.90;82.50;;;;;;5058096;28;20099;-45
2022/08/20 09:14:12;;;;;;;6.18;1.50;;;25.00;83.10;;;;;;5055154;28;20061;-49
2022/08/20 09:16:39;;;;;;;5.15;1.30;;;25.10;83.30;;;;;;5057581;28;20080;-49
2022/08/20 09:19:06;;;;;;;5.00;1.15;;;25.20;83.20;;;;;;5048262;28;20424;-48
2022/08/20 09:21:33;;;;;;;5.57;1.20;;;25.40;82.90;;;;;;5052893;28;20049;-45
2022/08/20 09:24:01;;;;;;;8.07;1.42;;;25.50;82.30;;;;;;5061236;28;20076;-45
2022/08/20 09:26:28;;;;;;;5.57;1.40;;;25.60;81.40;;;;;;5057722;28;20128;-47
2022/08/20 09:28:54;;;;;;;6.40;1.75;;;25.70;81.00;;;;;;5047556;28;20147;-46
2022/08/20 09:31:23;;;;;;;9.15;1.48;;;25.80;78.50;;;;;;5061569;28;20087;-46
2022/08/20 09:33:49;;;;;;;5.05;1.40;;;25.80;78.10;;;;;;5050239;28;20056;-47
2022/08/20 09:36:16;;;;;;;3.55;1.15;;;25.90;78.70;;;;;;5054390;28;20131;-45
2022/08/20 09:38:43;;;;;;;7.63;1.90;;;26.10;78.80;;;;;;5053143;28;20072;-49
2022/08/20 09:41:11;;;;;;;5.95;1.42;;;26.10;76.90;;;;;;5057765;28;20565;-41
2022/08/20 09:43:38;;;;;;;6.63;1.17;;;26.10;76.20;;;;;;5060413;28;20502;-45
2022/08/20 09:46:05;;;;;;;5.90;1.65;;;26.00;77.20;;;;;;5055191;28;20547;-48
2022/08/20 09:48:31;;;;;;;6.47;1.60;;;26.00;75.20;;;;;;5049358;28;20412;-45
2022/08/20 09:50:58;;;;;;;7.53;1.35;;;26.00;75.30;;;;;;5052443;28;20132;-51
2022/08/20 09:53:25;;;;;;;4.18;1.25;;;26.10;74.60;;;;;;5049624;28;20111;-47
2022/08/20 09:55:53;;;;;;;7.30;1.77;;;26.10;74.70;;;;;;5051263;28;20500;-46
2022/08/20 09:58:22;;;;;;;6.82;1.50;;;25.90;76.20;;;;;;5051313;28;20260;-49
2022/08/20 10:00:48;;;;;;;6.55;1.38;;;25.80;75.80;;;;;;5049087;28;20041;-46
2022/08/20 10:03:15;;;;;;;5.22;1.50;;;25.80;75.60;;;;;;5050771;28;20096;-48
2022/08/20 10:05:42;;;;;;;7.97;1.35;;;26.00;74.40;;;;;;5049613;28;20084;-45
2022/08/20 10:08:09;;;;;;;4.78;1.40;;;26.20;73.60;;;;;;5051412;28;20132;-46
2022/08/20 10:10:36;;;;;;;6.55;1.40;;;26.30;73.60;;;;;;5051849;28;20473;-47
2022/08/20 10:13:03;;;;;;;9.35;1.75;;;26.30;73.10;;;;;;5052031;28;20053;-50
2022/08/20 10:15:31;;;;;;;5.35;1.27;;;26.30;73.50;;;;;;5052650;28;20114;-49
2022/08/20 10:17:58;;;;;;;4.65;1.40;;;26.50;72.80;;;;;;5044474;28;20128;-48
2022/08/20 10:20:25;;;;;;;4.53;1.40;;;26.70;71.00;;;;;;5050152;28;20505;-48
2022/08/20 10:22:52;;;;;;;5.72;1.55;;;26.90;70.80;;;;;;5062942;28;20098;-50
2022/08/20 10:25:19;;;;;;;5.90;1.35;;;27.00;68.10;;;;;;5047760;28;20045;-49
2022/08/20 10:27:47;;;;;;;5.68;1.40;;;27.00;69.80;;;;;;5048996;28;20045;-45
2022/08/20 10:30:14;;;;;;;4.95;1.58;;;26.90;69.50;;;;;;5049982;28;20094;-45
2022/08/20 10:32:42;;;;;;;6.28;1.38;;;26.90;69.20;;;;;;5056090;28;20135;-48
2022/08/20 10:35:09;;;;;;;8.00;1.25;;;26.90;69.10;;;;;;5051377;28;20041;-47
2022/08/20 10:37:36;;;;;;;6.88;1.90;;;27.00;67.40;;;;;;5044836;28;20189;-50
2022/08/20 10:40:03;;;;;;;5.68;1.50;;;27.10;66.90;;;;;;5054628;28;20059;-47
2022/08/20 10:42:30;;;;;;;7.70;1.55;;;27.10;68.20;;;;;;5053960;28;20132;-43
2022/08/20 10:44:56;;;;;;;3.92;1.42;;;27.20;67.60;;;;;;5061243;28;20090;-44
2022/08/20 10:47:24;;;;;;;5.85;1.40;;;27.30;66.60;;;;;;5050956;28;20128;-47
2022/08/20 10:49:53;;;;;;;10.68;2.05;;;27.30;66.50;;;;;;5048609;28;20110;-47
2022/08/20 10:52:20;;;;;;;6.85;1.42;;;27.40;66.30;;;;;;5057266;28;20467;-46
2022/08/20 10:54:47;;;;;;;4.60;1.27;;;27.50;63.90;;;;;;5051267;28;20136;-46
2022/08/20 10:57:14;;;;;;;4.05;1.30;;;27.50;63.60;;;;;;5045967;28;20077;-45
2022/08/20 10:59:41;;;;;;;5.93;1.40;;;27.40;64.00;;;;;;5051147;28;20052;-51
2022/08/20 11:02:08;;;;;;;7.32;1.60;;;27.20;63.80;;;;;;5048623;28;20440;-51
2022/08/20 11:04:35;;;;;;;4.60;1.20;;;27.20;64.80;;;;;;5050841;28;20103;-51
2022/08/20 11:07:19;;;;;;;6.65;1.30;;;27.20;64.00;;;;;;5050736;28;20084;-45
2022/08/20 11:09:46;;;;;;;7.05;1.50;;;27.40;64.90;;;;;;5046941;28;20127;-47
2022/08/20 11:12:13;;;;;;;5.55;1.42;;;27.60;64.20;;;;;;5049185;28;20084;-47
2022/08/20 11:14:39;;;;;;;5.20;1.30;;;27.90;62.90;;;;;;5047363;28;20571;-47
2022/08/20 11:17:06;;;;;;;7.25;1.40;;;28.20;61.70;;;;;;5045000;28;20045;-50
2022/08/20 11:19:33;;;;;;;4.60;1.40;;;28.30;60.90;;;;;;5053726;28;20048;-44
2022/08/20 11:22:00;;;;;;;5.75;1.67;;;28.20;61.80;;;;;;5051346;28;20053;-49
2022/08/20 11:24:28;;;;;;;6.72;1.30;;;28.20;61.40;;;;;;5055913;28;20092;-49
2022/08/20 11:26:55;;;;;;;5.10;1.20;;;28.40;61.60;;;;;;5048100;28;20064;-51
2022/08/20 11:29:23;;;;;;;5.30;1.45;;;28.40;61.50;;;;;;5043332;28;20088;-50
2022/08/20 11:31:50;;;;;;;6.18;1.52;;;28.30;61.60;;;;;;5042713;28;20053;-48
2022/08/20 11:34:17;;;;;;;5.93;1.60;;;28.00;61.40;;;;;;5046468;28;20072;-46
2022/08/20 11:36:44;;;;;;;6.47;1.10;;;28.00;62.10;;;;;;5041599;28;20080;-50
2022/08/20 11:39:11;;;;;;;8.40;1.48;;;28.10;63.40;;;;;;5040305;28;20076;-48
2022/08/20 11:41:39;;;;;;;4.57;1.50;;;28.30;61.70;;;;;;5040036;28;20144;-45
2022/08/20 11:44:06;;;;;;;5.72;1.52;;;28.30;61.80;;;;;;5052585;28;20124;-46
2022/08/20 11:46:32;;;;;;;5.75;1.55;;;28.30;61.90;;;;;;5053388;28;20072;-46
2022/08/20 11:48:59;;;;;;;9.20;2.00;;;28.50;60.70;;;;;;5053846;28;20496;-48
2022/08/20 11:51:26;;;;;;;9.82;2.08;;;28.70;59.50;;;;;;5051856;28;20406;-50
2022/08/20 11:53:53;;;;;;;8.00;1.38;;;28.80;56.80;;;;;;5046574;28;20108;-44
2022/08/20 11:56:20;;;;;;;9.73;1.58;;;28.90;57.10;;;;;;5034833;28;20041;-48
2022/08/20 11:58:48;;;;;;;4.90;1.42;;;29.10;57.20;;;;;;5015882;28;20100;-50
2022/08/20 12:01:15;;;;;;;10.40;1.80;;;29.20;56.90;;;;;;5017385;28;20049;-43
2022/08/20 12:03:41;;;;;;;5.50;1.45;;;29.20;56.60;;;;;;5015710;28;20103;-51
2022/08/20 12:06:08;;;;;;;7.93;2.10;;;29.20;56.60;;;;;;5017287;28;20524;-46
2022/08/20 12:08:35;;;;;;;7.55;1.70;;;29.20;56.10;;;;;;5017270;28;20554;-54
2022/08/20 12:11:02;;;;;;;6.90;1.63;;;29.30;55.50;;;;;;5017424;28;20477;-51
2022/08/20 12:13:30;;;;;;;6.65;1.65;;;29.10;55.10;;;;;;5031023;28;20084;-51
2022/08/20 12:15:58;;;;;;;8.50;1.70;;;28.80;55.70;;;;;;5015204;28;20137;-48
2022/08/20 12:18:25;;;;;;;5.38;1.60;;;28.60;56.10;;;;;;5032671;28;20104;-46
2022/08/20 12:20:52;;;;;;;7.40;1.67;;;28.50;57.60;;;;;;5027115;28;21816;-46
2022/08/20 12:23:19;;;;;;;5.38;1.40;;;28.40;57.00;;;;;;5038039;28;20133;-48
2022/08/20 12:25:45;;;;;;;5.00;1.60;;;28.30;57.50;;;;;;5031196;28;20599;-46
2022/08/20 12:28:12;;;;;;;7.70;1.80;;;28.10;57.90;;;;;;5033757;28;20052;-49
2022/08/20 12:30:39;;;;;;;4.13;1.30;;;28.20;57.70;;;;;;5031228;28;20084;-49
2022/08/20 12:33:07;;;;;;;6.40;1.50;;;28.30;57.50;;;;;;5012827;28;20049;-48
2022/08/20 12:35:34;;;;;;;6.07;1.20;;;28.50;56.50;;;;;;5027852;28;20057;-49
2022/08/20 12:38:02;;;;;;;4.97;1.33;;;28.60;56.60;;;;;;5019496;28;20073;-52
2022/08/20 12:40:29;;;;;;;6.47;1.48;;;28.50;56.20;;;;;;5034199;28;20049;-51
2022/08/20 12:42:56;;;;;;;5.47;2.10;;;28.40;56.60;;;;;;5017018;28;20124;-46
2022/08/20 12:45:22;;;;;;;5.90;1.60;;;28.40;57.10;;;;;;5022971;28;20123;-46
2022/08/20 12:47:49;;;;;;;6.03;1.38;;;28.50;56.00;;;;;;5030117;28;20073;-44
2022/08/20 12:50:19;;;;;;;6.68;1.40;;;28.70;56.60;;;;;;5032691;28;20484;-44
2022/08/20 12:52:46;;;;;;;6.75;1.60;;;28.80;56.20;;;;;;5034965;28;20072;-49